Time;durP1;ratioP1;P1;durP2;ratioP2;P2;SDS_P1;SDS_P2;PMS_P1;PMS_P2;Temp;Humidity;BMP_temperature;BMP_pressure;BME280_temperature;BME280_humidity;BME280_pressure;Samples;Min_cycle;Max_cycle;Signal;HPM_P1;HPM_P2
2022/10/19 00:00:20;;;;;;;29.10;16.33;;;;;;;12.24;100.00;100271.34;4979350;28;20210;-81
2022/10/19 00:02:50;;;;;;;25.30;15.83;;;;;;;12.20;100.00;100275.13;5007848;28;20266;-81
2022/10/19 00:05:21;;;;;;;24.37;15.20;;;;;;;12.20;100.00;100277.78;5004450;28;20248;-81
2022/10/19 00:07:50;;;;;;;27.17;14.77;;;;;;;12.22;100.00;100274.09;4971482;28;20208;-80
2022/10/19 00:10:19;;;;;;;27.50;16.27;;;;;;;12.19;100.00;100268.09;4969696;28;20207;-81
2022/10/19 00:12:48;;;;;;;22.77;14.70;;;;;;;12.07;100.00;100272.25;4969378;28;20235;-81
2022/10/19 00:15:19;;;;;;;23.33;13.90;;;;;;;12.10;100.00;100269.44;5003360;28;20233;-81
2022/10/19 00:17:48;;;;;;;29.00;15.00;;;;;;;12.08;100.00;100270.47;5016709;28;20251;-80
2022/10/19 00:20:22;;;;;;;24.60;14.47;;;;;;;12.12;100.00;100269.34;5025792;28;20205;-81
2022/10/19 00:22:51;;;;;;;26.37;15.07;;;;;;;12.21;100.00;100275.03;5025107;28;20205;-80
2022/10/19 00:25:20;;;;;;;28.00;15.67;;;;;;;12.13;100.00;100269.25;5029123;28;20257;-80
2022/10/19 00:27:50;;;;;;;32.17;16.10;;;;;;;12.02;100.00;100267.16;5025302;28;20206;-80
2022/10/19 00:30:19;;;;;;;28.07;15.57;;;;;;;11.91;100.00;100255.41;4965486;28;20223;-81
2022/10/19 00:32:49;;;;;;;30.80;16.30;;;;;;;11.92;100.00;100262.41;4990533;28;20709;-81
2022/10/19 00:35:22;;;;;;;32.00;16.10;;;;;;;11.99;100.00;100256.72;4972743;28;20203;-80
2022/10/19 00:37:51;;;;;;;31.73;15.23;;;;;;;11.94;100.00;100252.56;4968877;28;20207;-81
2022/10/19 00:40:21;;;;;;;26.27;15.67;;;;;;;11.88;100.00;100251.13;4962231;28;20250;-80
2022/10/19 00:42:56;;;;;;;27.63;14.67;;;;;;;11.93;100.00;100253.50;4966709;28;20242;-81
2022/10/19 00:45:25;;;;;;;27.97;14.00;;;;;;;11.69;100.00;100256.47;4915321;29;20201;-81
2022/10/19 00:47:55;;;;;;;24.20;13.23;;;;;;;11.62;100.00;100260.38;4929135;29;20189;-81
2022/10/19 00:50:27;;;;;;;30.53;14.10;;;;;;;11.69;100.00;100260.94;4932638;29;20228;-81
2022/10/19 00:52:57;;;;;;;25.87;14.97;;;;;;;11.57;100.00;100259.72;4929656;29;20193;-81
2022/10/19 00:55:27;;;;;;;25.37;15.03;;;;;;;11.70;100.00;100265.28;4898210;29;20241;-81
2022/10/19 00:57:56;;;;;;;26.93;15.00;;;;;;;11.69;100.00;100255.63;4896096;29;20198;-81
2022/10/19 01:00:24;;;;;;;31.47;15.53;;;;;;;11.56;100.00;100262.47;4916394;29;20666;-81
2022/10/19 01:02:55;;;;;;;27.13;14.90;;;;;;;11.66;100.00;100264.56;4934196;28;20193;-81
2022/10/19 01:05:24;;;;;;;28.80;15.50;;;;;;;11.61;100.00;100266.63;4952052;28;20204;-81
2022/10/19 01:07:54;;;;;;;31.50;16.23;;;;;;;11.62;100.00;100259.50;4950782;28;20207;-80
2022/10/19 01:10:31;;;;;;;26.97;15.70;;;;;;;11.59;100.00;100268.50;4948365;28;20224;-80
2022/10/19 01:13:21;;;;;;;29.40;15.47;;;;;;;11.61;100.00;100266.63;4950485;28;20227;-81
2022/10/19 01:15:57;;;;;;;28.50;16.47;;;;;;;11.53;100.00;100259.97;4965268;28;20709;-81
2022/10/19 01:18:36;;;;;;;27.07;16.93;;;;;;;11.48;100.00;100260.19;4950717;28;20330;-81
2022/10/19 01:21:25;;;;;;;36.10;17.07;;;;;;;11.53;100.00;100267.94;5021214;28;20246;-81
2022/10/19 01:24:26;;;;;;;30.00;17.03;;;;;;;11.60;100.00;100256.94;4985080;28;20234;-81
2022/10/19 01:27:22;;;;;;;29.03;16.47;;;;;;;11.52;100.00;100259.13;4972885;28;20259;-80
2022/10/19 01:30:13;;;;;;;29.60;15.97;;;;;;;11.53;100.00;100255.53;4971692;28;20247;-80
2022/10/19 01:32:55;;;;;;;31.80;16.63;;;;;;;11.54;100.00;100251.06;4969532;28;20249;-80
2022/10/19 01:35:31;;;;;;;26.43;16.03;;;;;;;11.43;100.00;100255.13;4972011;28;20199;-80
2022/10/19 01:38:14;;;;;;;31.40;15.73;;;;;;;11.38;100.00;100253.63;4993956;28;20249;-80
2022/10/19 01:40:51;;;;;;;31.47;16.73;;;;;;;11.17;100.00;100259.06;4989152;28;20195;-81
2022/10/19 01:43:27;;;;;;;31.80;17.33;;;;;;;11.08;100.00;100254.19;5026982;28;20193;-81
2022/10/19 01:46:06;;;;;;;32.53;17.50;;;;;;;11.14;100.00;100261.00;5039153;28;20204;-80
2022/10/19 01:48:41;;;;;;;31.73;17.97;;;;;;;10.95;100.00;100261.03;5007680;28;20201;-81
2022/10/19 01:51:14;;;;;;;33.57;17.57;;;;;;;10.76;100.00;100262.84;5007940;28;20202;-80
2022/10/19 01:53:46;;;;;;;32.17;16.80;;;;;;;10.66;100.00;100262.41;5011776;28;20221;-81
2022/10/19 01:56:24;;;;;;;32.77;17.37;;;;;;;10.71;100.00;100257.75;4974039;28;20203;-81
2022/10/19 01:59:04;;;;;;;32.97;17.87;;;;;;;10.66;100.00;100253.59;4973354;28;20191;-80
2022/10/19 02:01:40;;;;;;;41.47;18.90;;;;;;;10.66;100.00;100265.06;4971260;28;20254;-81
2022/10/19 02:04:11;;;;;;;37.17;18.50;;;;;;;10.66;100.00;100264.19;4959844;28;20196;-80
2022/10/19 02:06:41;;;;;;;38.13;18.63;;;;;;;10.56;100.00;100261.13;4974587;28;20257;-81
2022/10/19 02:09:16;;;;;;;33.07;19.43;;;;;;;10.67;100.00;100263.25;4915599;29;20202;-81
2022/10/19 02:11:47;;;;;;;35.57;18.23;;;;;;;10.55;100.00;100259.41;4917869;29;20205;-81
2022/10/19 02:14:25;;;;;;;36.33;18.93;;;;;;;10.48;100.00;100261.47;4944801;28;20310;-81
2022/10/19 02:16:59;;;;;;;31.27;16.60;;;;;;;10.48;100.00;100261.47;4987404;28;20198;-81
2022/10/19 02:19:28;;;;;;;34.20;16.87;;;;;;;10.54;100.00;100260.34;4991291;28;20195;-81
2022/10/19 02:22:02;;;;;;;34.37;16.77;;;;;;;10.62;100.00;100259.97;4989309;28;20207;-81
2022/10/19 02:24:31;;;;;;;28.57;16.67;;;;;;;10.70;100.00;100255.16;4954539;28;20207;-81
2022/10/19 02:27:03;;;;;;;32.43;16.73;;;;;;;10.80;100.00;100248.50;4988024;28;20251;-81
2022/10/19 02:29:34;;;;;;;30.57;16.70;;;;;;;10.76;100.00;100250.44;5004814;28;20217;-81
2022/10/19 02:32:09;;;;;;;30.40;16.63;;;;;;;10.65;100.00;100250.09;5049173;28;20251;-81
2022/10/19 02:34:38;;;;;;;28.47;15.40;;;;;;;10.59;100.00;100247.72;5045813;28;20197;-81
2022/10/19 02:37:12;;;;;;;29.97;16.13;;;;;;;10.51;100.00;100245.41;5045952;28;20243;-81
2022/10/19 02:39:41;;;;;;;26.73;14.90;;;;;;;10.65;100.00;100243.94;4954441;28;20205;-81
2022/10/19 02:42:15;;;;;;;29.53;15.20;;;;;;;10.58;100.00;100243.34;4956493;28;20196;-81
2022/10/19 02:44:50;;;;;;;28.53;14.10;;;;;;;10.51;100.00;100247.22;4922868;28;20263;-81
2022/10/19 02:47:26;;;;;;;23.17;13.63;;;;;;;10.46;100.00;100247.44;4966133;28;20196;-82
2022/10/19 02:49:58;;;;;;;20.93;13.40;;;;;;;10.23;100.00;100248.50;4971111;28;20306;-81
2022/10/19 02:52:26;;;;;;;20.63;13.13;;;;;;;10.19;100.00;100246.00;4912306;29;20649;-81
2022/10/19 02:54:57;;;;;;;29.70;13.80;;;;;;;10.23;100.00;100240.56;4921606;29;20294;-81
2022/10/19 02:57:26;;;;;;;25.33;12.20;;;;;;;10.09;100.00;100242.03;4948120;28;20204;-82
2022/10/19 02:59:55;;;;;;;34.07;13.97;;;;;;;10.08;100.00;100243.84;4966186;28;20726;-81
2022/10/19 03:02:26;;;;;;;96.03;15.37;;;;;;;9.70;100.00;100241.06;4970399;28;20207;-80
2022/10/19 03:04:55;;;;;;;114.10;15.87;;;;;;;9.69;100.00;100249.94;4969744;28;20210;-80
2022/10/19 03:07:24;;;;;;;111.60;14.40;;;;;;;9.81;100.00;100247.69;4970679;28;20196;-80
2022/10/19 03:09:53;;;;;;;44.13;12.57;;;;;;;9.95;100.00;100243.53;4982559;28;20263;-80
2022/10/19 03:12:22;;;;;;;55.40;14.77;;;;;;;9.89;100.00;100245.56;5068427;28;20225;-80
2022/10/19 03:14:51;;;;;;;92.00;15.63;;;;;;;9.95;100.00;100248.81;5050187;28;528980;-80
2022/10/19 03:17:19;;;;;;;174.17;19.93;;;;;;;9.63;100.00;100252.84;5048965;28;20192;-80
2022/10/19 03:19:54;;;;;;;157.73;19.83;;;;;;;9.52;100.00;100251.56;5068687;28;20283;-81
2022/10/19 03:22:22;;;;;;;147.37;17.77;;;;;;;9.45;100.00;100249.19;5073538;28;20199;-80
2022/10/19 03:24:51;;;;;;;48.03;15.07;;;;;;;9.64;100.00;100246.63;5072429;28;20274;-80
2022/10/19 03:27:19;;;;;;;115.30;18.80;;;;;;;9.78;100.00;100250.47;5071099;28;20212;-80
2022/10/19 03:29:49;;;;;;;97.73;17.73;;;;;;;9.81;100.00;100253.84;5066636;28;20200;-80
2022/10/19 03:32:18;;;;;;;91.70;17.03;;;;;;;9.82;100.00;100252.06;5069387;28;20200;-81
2022/10/19 03:34:47;;;;;;;139.00;18.67;;;;;;;9.78;100.00;100256.63;5069720;28;20268;-80
2022/10/19 03:37:17;;;;;;;71.80;16.13;;;;;;;9.95;100.00;100250.63;5070788;28;20200;-81
2022/10/19 03:39:46;;;;;;;54.40;14.93;;;;;;;9.89;100.00;100250.88;5073224;28;20271;-80
2022/10/19 03:42:17;;;;;;;110.00;16.73;;;;;;;9.91;100.00;100249.88;5008891;28;20198;-80
2022/10/19 03:44:48;;;;;;;57.57;14.93;;;;;;;9.90;100.00;100252.59;4959333;28;20198;-79
2022/10/19 03:47:19;;;;;;;148.00;18.67;;;;;;;9.84;100.00;100260.78;5006107;28;20195;-80
2022/10/19 03:49:49;;;;;;;96.13;16.10;;;;;;;9.88;100.00;100242.06;4949655;28;20208;-80
2022/10/19 03:52:22;;;;;;;62.93;15.37;;;;;;;9.80;100.00;100248.63;4948113;28;20313;-80
2022/10/19 03:54:53;;;;;;;121.97;16.97;;;;;;;9.86;100.00;100240.44;4896624;29;20213;-81
2022/10/19 03:57:21;;;;;;;94.27;16.13;;;;;;;9.82;100.00;100246.75;4894259;29;20263;-80
2022/10/19 03:59:50;;;;;;;41.30;12.83;;;;;;;9.91;100.00;100241.94;4904359;29;20205;-80
2022/10/19 04:02:19;;;;;;;53.20;13.77;;;;;;;9.92;100.00;100248.94;4930253;29;20229;-81
2022/10/19 04:04:48;;;;;;;36.73;12.57;;;;;;;9.80;100.00;100257.41;4931053;29;20657;-80
2022/10/19 04:07:18;;;;;;;34.17;12.10;;;;;;;9.82;100.00;100246.75;4933019;29;20205;-81
2022/10/19 04:09:47;;;;;;;39.57;12.50;;;;;;;9.81;100.00;100251.19;4934832;29;20198;-80
2022/10/19 04:12:17;;;;;;;44.83;12.30;;;;;;;9.79;100.00;100247.75;4942878;28;20269;-81
2022/10/19 04:14:46;;;;;;;53.73;11.63;;;;;;;9.71;100.00;100249.88;5041444;28;20219;-80
2022/10/19 04:17:27;;;;;;;19.37;10.20;;;;;;;9.78;100.00;100231.97;5024204;28;20201;-81
2022/10/19 04:19:55;;;;;;;57.73;12.23;;;;;;;9.71;100.00;100244.59;4931409;29;20198;-80
2022/10/19 04:22:26;;;;;;;33.63;10.83;;;;;;;9.70;100.00;100240.22;4931572;29;20260;-80
2022/10/19 04:24:57;;;;;;;87.43;13.23;;;;;;;9.52;100.00;100236.56;4914346;29;20206;-80
2022/10/19 04:27:26;;;;;;;190.47;18.40;;;;;;;9.37;100.00;100235.44;4911464;29;20201;-81
2022/10/19 04:29:55;;;;;;;115.53;14.90;;;;;;;9.33;100.00;100235.63;4895327;29;20289;-81
2022/10/19 04:32:24;;;;;;;48.43;11.07;;;;;;;9.38;100.00;100244.22;4893323;29;20262;-80
2022/10/19 04:34:54;;;;;;;41.43;10.70;;;;;;;9.27;100.00;100236.75;4906063;29;20233;-80
2022/10/19 04:37:22;;;;;;;75.20;12.33;;;;;;;9.28;100.00;100240.25;4949555;29;20255;-80
2022/10/19 04:39:54;;;;;;;76.23;11.73;;;;;;;9.24;100.00;100254.50;4950257;29;20193;-80
2022/10/19 04:42:22;;;;;;;24.13;9.47;;;;;;;9.16;100.00;100247.72;4951199;28;20205;-80
2022/10/19 04:44:52;;;;;;;15.60;9.83;;;;;;;9.16;100.00;100252.16;4928965;29;20226;-79
2022/10/19 04:47:21;;;;;;;38.97;10.30;;;;;;;9.22;100.00;100259.00;4931416;29;20209;-80
2022/10/19 04:49:50;;;;;;;36.10;9.67;;;;;;;9.07;100.00;100255.19;4931976;29;20216;-81
2022/10/19 04:52:19;;;;;;;20.10;9.43;;;;;;;9.03;100.00;100258.88;4963327;28;20255;-81
2022/10/19 04:54:48;;;;;;;21.27;8.83;;;;;;;8.99;100.00;100259.94;4970026;28;20195;-81
2022/10/19 04:57:19;;;;;;;38.90;10.17;;;;;;;9.04;100.00;100264.09;4958356;28;20203;-81
2022/10/19 04:59:50;;;;;;;20.10;9.97;;;;;;;8.77;100.00;100268.69;4964921;28;20199;-81
2022/10/19 05:02:21;;;;;;;34.37;10.87;;;;;;;8.70;100.00;100267.22;4967890;28;20191;-81
2022/10/19 05:04:51;;;;;;;30.60;10.27;;;;;;;8.65;100.00;100268.28;4969385;28;20198;-81
2022/10/19 05:07:20;;;;;;;37.23;11.97;;;;;;;8.62;100.00;100260.50;4957408;28;20230;-81
2022/10/19 05:09:48;;;;;;;76.33;13.23;;;;;;;8.51;100.00;100261.78;5030903;28;20204;-81
2022/10/19 05:12:21;;;;;;;44.47;10.77;;;;;;;8.56;100.00;100264.22;5068015;28;20212;-81
2022/10/19 05:14:49;;;;;;;49.27;11.37;;;;;;;8.59;100.00;100258.84;5067382;28;20224;-81
2022/10/19 05:17:18;;;;;;;51.83;11.03;;;;;;;8.66;100.00;100251.53;5070558;28;20181;-81
2022/10/19 05:19:47;;;;;;;36.13;9.97;;;;;;;8.73;100.00;100260.94;5008593;28;20233;-81
2022/10/19 05:22:16;;;;;;;39.03;12.10;;;;;;;8.73;100.00;100259.16;5011019;28;20190;-81
2022/10/19 05:24:46;;;;;;;28.97;10.13;;;;;;;8.82;100.00;100263.22;4965653;28;20690;-81
2022/10/19 05:27:14;;;;;;;91.33;12.90;;;;;;;8.74;100.00;100265.31;4972389;28;20188;-80
2022/10/19 05:29:44;;;;;;;21.83;10.43;;;;;;;8.78;100.00;100272.19;4985423;28;20282;-81
2022/10/19 05:32:13;;;;;;;59.93;11.77;;;;;;;8.66;100.00;100267.38;4985384;28;20712;-81
2022/10/19 05:34:42;;;;;;;57.67;11.97;;;;;;;8.57;100.00;100266.81;4986532;28;20253;-81
2022/10/19 05:37:11;;;;;;;68.00;12.10;;;;;;;8.56;100.00;100269.50;4985118;28;20199;-81
2022/10/19 05:39:45;;;;;;;29.83;10.73;;;;;;;8.56;100.00;100269.50;4987817;28;20199;-82
2022/10/19 05:42:13;;;;;;;33.80;10.60;;;;;;;8.52;100.00;100266.13;4986444;28;20210;-82
2022/10/19 05:44:46;;;;;;;18.27;10.70;;;;;;;8.61;100.00;100259.66;4931704;29;20209;-82
2022/10/19 05:47:16;;;;;;;23.10;10.60;;;;;;;8.66;100.00;100256.81;4965746;28;20204;-82
2022/10/19 05:49:45;;;;;;;15.93;10.70;;;;;;;8.78;100.00;100267.78;4960805;28;20215;-82
2022/10/19 05:52:17;;;;;;;22.13;11.67;;;;;;;8.91;100.00;100262.88;4966631;28;20220;-81
2022/10/19 05:54:48;;;;;;;21.80;11.33;;;;;;;9.05;100.00;100263.16;4969176;28;20200;-82
2022/10/19 05:57:17;;;;;;;19.57;11.73;;;;;;;9.09;100.00;100267.44;4968082;28;20196;-82
2022/10/19 05:59:48;;;;;;;23.87;12.97;;;;;;;9.26;100.00;100271.16;4964204;28;20203;-82
2022/10/19 06:02:17;;;;;;;19.97;12.17;;;;;;;9.36;100.00;100269.84;4975154;28;20199;-81
2022/10/19 06:04:47;;;;;;;22.77;12.87;;;;;;;9.41;100.00;100270.53;5012257;28;20229;-81
2022/10/19 06:07:16;;;;;;;21.60;12.70;;;;;;;9.39;100.00;100280.31;5012948;28;20721;-81
2022/10/19 06:09:46;;;;;;;22.20;13.27;;;;;;;9.39;100.00;100289.13;5038181;28;20651;-81
2022/10/19 06:12:15;;;;;;;20.70;12.87;;;;;;;9.53;100.00;100283.25;5092489;28;20212;-82
2022/10/19 06:14:52;;;;;;;18.70;12.83;;;;;;;9.67;100.00;100287.97;5087794;28;20224;-81
2022/10/19 06:17:23;;;;;;;19.60;12.37;;;;;;;9.73;100.00;100285.06;5088325;28;20195;-81
2022/10/19 06:19:52;;;;;;;21.07;12.87;;;;;;;9.80;100.00;100286.53;5090119;28;20663;-81
2022/10/19 06:22:21;;;;;;;19.17;12.70;;;;;;;9.69;100.00;100284.34;5092563;28;20199;-81
2022/10/19 06:24:50;;;;;;;19.63;12.07;;;;;;;9.93;100.00;100285.06;5068519;28;20262;-81
2022/10/19 06:27:21;;;;;;;18.77;12.13;;;;;;;9.91;100.00;100278.97;5066184;28;20708;-81
2022/10/19 06:29:52;;;;;;;17.83;12.03;;;;;;;9.72;100.00;100283.34;5074013;28;20188;-82
2022/10/19 06:32:27;;;;;;;18.93;12.00;;;;;;;9.96;100.00;100279.66;5027209;28;20222;-82
2022/10/19 06:34:58;;;;;;;17.87;11.47;;;;;;;9.89;100.00;100283.47;4954315;28;20204;-82
2022/10/19 06:37:29;;;;;;;16.03;10.80;;;;;;;9.95;100.00;100280.59;4950819;29;20210;-80
2022/10/19 06:39:58;;;;;;;15.97;11.57;;;;;;;9.92;100.00;100278.03;4906234;29;20239;-81
2022/10/19 06:42:37;;;;;;;17.43;10.97;;;;;;;10.01;100.00;100280.28;4944711;28;20259;-82
2022/10/19 06:45:11;;;;;;;14.43;10.50;;;;;;;10.10;100.00;100276.38;4969337;28;20270;-82
2022/10/19 06:47:45;;;;;;;16.70;11.13;;;;;;;10.03;100.00;100270.50;4967004;28;20199;-81
2022/10/19 06:50:15;;;;;;;17.63;9.80;;;;;;;10.12;100.00;100273.66;4970006;28;20204;-81
2022/10/19 06:52:48;;;;;;;16.60;9.77;;;;;;;10.18;100.00;100279.56;4953356;28;20249;-82
2022/10/19 06:55:20;;;;;;;17.87;10.93;;;;;;;9.99;100.00;100271.56;5009369;28;20289;-82
2022/10/19 06:57:49;;;;;;;14.70;8.63;;;;;;;10.11;100.00;100271.94;4986484;28;20203;-82
2022/10/19 07:00:19;;;;;;;14.80;10.17;;;;;;;10.10;100.00;100272.88;5012010;28;20188;-81
2022/10/19 07:02:51;;;;;;;12.17;9.60;;;;;;;10.17;100.00;100264.59;5045324;28;20243;-82
2022/10/19 07:05:20;;;;;;;13.20;9.80;;;;;;;10.08;100.00;100272.94;5012166;28;20740;-81
2022/10/19 07:07:49;;;;;;;14.67;9.43;;;;;;;10.16;100.00;100273.47;5007881;28;20198;-81
2022/10/19 07:10:22;;;;;;;10.90;8.57;;;;;;;10.20;100.00;100263.59;5005761;28;20191;-82
2022/10/19 07:12:51;;;;;;;13.20;9.27;;;;;;;9.99;100.00;100263.63;5009846;28;20233;-82
2022/10/19 07:15:27;;;;;;;10.40;8.40;;;;;;;9.86;100.00;100265.09;5009156;28;20194;-81
2022/10/19 07:17:55;;;;;;;12.80;8.93;;;;;;;10.06;100.00;100260.72;4927496;29;20264;-81
2022/10/19 07:20:25;;;;;;;14.17;9.43;;;;;;;10.02;100.00;100260.84;4935129;29;20212;-82
2022/10/19 07:22:54;;;;;;;14.53;9.70;;;;;;;10.07;100.00;100265.94;4914659;29;20213;-81
2022/10/19 07:25:25;;;;;;;12.67;9.50;;;;;;;10.24;100.00;100265.25;4932084;29;20265;-80
2022/10/19 07:27:56;;;;;;;13.20;9.53;;;;;;;10.34;100.00;100268.34;4935675;28;20201;-81
2022/10/19 07:30:26;;;;;;;15.07;9.80;;;;;;;10.44;100.00;100266.97;4974473;28;20195;-81
2022/10/19 07:32:55;;;;;;;14.20;10.27;;;;;;;10.52;100.00;100265.72;4966954;28;20224;-81
2022/10/19 07:35:23;;;;;;;15.77;9.47;;;;;;;10.50;100.00;100261.38;4987042;28;20237;-81
2022/10/19 07:37:52;;;;;;;15.17;9.97;;;;;;;10.64;100.00;100263.41;5089119;28;20199;-81
2022/10/19 07:40:21;;;;;;;11.90;9.50;;;;;;;10.58;100.00;100260.09;5094387;28;20190;-81
2022/10/19 07:42:49;;;;;;;13.53;9.03;;;;;;;10.52;100.00;100252.47;5085932;28;20200;-82
2022/10/19 07:45:18;;;;;;;17.27;9.80;;;;;;;10.72;100.00;100253.31;5086109;28;20208;-81
2022/10/19 07:47:49;;;;;;;14.70;9.60;;;;;;;10.55;100.00;100260.25;5087438;28;20191;-81
2022/10/19 07:50:18;;;;;;;12.17;8.80;;;;;;;10.74;100.00;100254.97;5084617;28;20710;-81
2022/10/19 07:52:47;;;;;;;18.07;9.67;;;;;;;10.81;100.00;100258.19;5090251;28;20215;-81
2022/10/19 07:55:15;;;;;;;13.53;9.17;;;;;;;11.04;100.00;100254.44;5086219;28;20195;-81
2022/10/19 07:57:49;;;;;;;16.10;9.57;;;;;;;10.87;100.00;100248.13;5089667;28;20191;-82
2022/10/19 08:00:19;;;;;;;11.80;8.83;;;;;;;10.85;100.00;100250.00;5086748;28;20210;-81
2022/10/19 08:02:50;;;;;;;14.07;9.30;;;;;;;10.86;100.00;100249.06;5088923;28;20219;-81
2022/10/19 08:05:40;;;;;;;13.03;8.83;;;;;;;10.91;100.00;100254.16;5094896;28;20262;-81
2022/10/19 08:08:12;;;;;;;14.53;9.57;;;;;;;10.96;100.00;100248.63;5091341;28;20196;-82
2022/10/19 08:10:40;;;;;;;15.00;9.57;;;;;;;10.97;100.00;100243.25;5091545;28;20192;-81
2022/10/19 08:13:09;;;;;;;17.10;8.83;;;;;;;11.02;100.00;100235.09;5082462;28;20280;-81
2022/10/19 08:15:37;;;;;;;16.20;8.50;;;;;;;11.14;100.00;100229.19;5029098;28;20209;-82
2022/10/19 08:18:08;;;;;;;14.63;8.17;;;;;;;11.19;100.00;100227.16;4977911;28;20201;-82
2022/10/19 08:20:37;;;;;;;12.33;8.00;;;;;;;11.36;100.00;100216.56;5026349;28;20268;-81
2022/10/19 08:23:05;;;;;;;14.80;7.83;;;;;;;11.44;100.00;100222.34;5025470;28;20198;-81
2022/10/19 08:25:36;;;;;;;17.87;8.23;;;;;;;11.57;100.00;100224.38;5023261;28;20201;-81
2022/10/19 08:28:05;;;;;;;20.20;8.10;;;;;;;11.69;100.00;100216.66;5026884;28;20293;-81
2022/10/19 08:30:35;;;;;;;16.23;8.70;;;;;;;11.89;100.00;100220.97;4982314;28;20209;-81
2022/10/19 08:33:07;;;;;;;17.87;8.40;;;;;;;12.20;100.00;100222.00;5035054;28;20265;-81
2022/10/19 08:35:37;;;;;;;11.20;7.20;;;;;;;12.21;100.00;100205.97;5088893;28;20199;-82
2022/10/19 08:38:08;;;;;;;9.77;6.77;;;;;;;12.37;100.00;100203.34;5089779;28;20230;-81
2022/10/19 08:40:37;;;;;;;15.40;6.43;;;;;;;12.34;100.00;100200.84;5086295;28;20227;-82
2022/10/19 08:43:14;;;;;;;14.77;6.47;;;;;;;12.45;100.00;100201.13;5011955;28;20201;-81
2022/10/19 08:45:44;;;;;;;11.03;5.77;;;;;;;12.56;100.00;100189.91;5008564;28;20263;-82
2022/10/19 08:48:28;;;;;;;13.60;6.03;;;;;;;12.85;100.00;100191.78;5003028;28;20199;-81
2022/10/19 08:51:01;;;;;;;9.40;5.87;;;;;;;12.98;100.00;100186.63;5012027;28;20194;-81
2022/10/19 08:53:42;;;;;;;10.00;5.67;;;;;;;13.02;100.00;100187.28;5007874;28;20260;-81
2022/10/19 08:56:27;;;;;;;8.70;5.33;;;;;;;13.10;100.00;100179.72;5007319;28;20214;-82
2022/10/19 08:59:27;;;;;;;9.70;5.40;;;;;;;13.04;100.00;100175.63;5011537;28;20685;-81
2022/10/19 09:01:59;;;;;;;13.27;5.50;;;;;;;12.96;100.00;100177.88;5000617;28;20635;-82
2022/10/19 09:04:32;;;;;;;11.83;5.13;;;;;;;13.10;100.00;100177.91;4999647;28;20232;-81
2022/10/19 09:07:23;;;;;;;12.10;5.50;;;;;;;13.24;100.00;100193.13;5007839;28;20205;-82
2022/10/19 09:09:56;;;;;;;7.73;4.93;;;;;;;13.66;100.00;100184.38;5002456;28;20202;-82
2022/10/19 09:12:37;;;;;;;9.60;5.13;;;;;;;13.49;100.00;100187.19;5005403;28;20229;-81
2022/10/19 09:15:11;;;;;;;15.20;5.30;;;;;;;13.56;100.00;100177.06;5073771;28;20215;-82
2022/10/19 09:17:42;;;;;;;13.23;4.80;;;;;;;13.45;100.00;100181.22;5089844;28;20215;-81
2022/10/19 09:20:19;;;;;;;9.47;5.10;;;;;;;13.86;100.00;100182.31;5085041;28;20187;-81
2022/10/19 09:22:55;;;;;;;12.57;4.20;;;;;;;13.51;100.00;100179.13;5084021;28;20199;-81
2022/10/19 09:25:25;;;;;;;12.40;4.73;;;;;;;13.65;100.00;100169.38;5088087;28;20191;-82
2022/10/19 09:28:06;;;;;;;9.93;4.23;;;;;;;13.82;100.00;100156.84;5086691;28;20639;-82
2022/10/19 09:30:42;;;;;;;9.13;4.33;;;;;;;13.48;100.00;100152.69;5087542;28;20203;-81
2022/10/19 09:33:20;;;;;;;10.97;3.93;;;;;;;13.74;100.00;100151.97;5083602;28;20199;-82
2022/10/19 09:35:49;;;;;;;9.23;3.87;;;;;;;14.07;100.00;100156.16;5047066;28;20200;-81
2022/10/19 09:38:25;;;;;;;8.43;3.87;;;;;;;14.14;100.00;100147.69;5046035;28;20235;-82
2022/10/19 09:40:54;;;;;;;6.93;3.70;;;;;;;14.54;100.00;100148.72;5052098;28;20197;-82
2022/10/19 09:43:24;;;;;;;5.83;3.53;;;;;;;14.14;100.00;100145.03;5049957;28;20251;-82
2022/10/19 09:45:56;;;;;;;9.80;3.33;;;;;;;14.43;100.00;100143.19;5048016;28;20248;-82
2022/10/19 09:48:32;;;;;;;6.80;3.30;;;;;;;14.13;100.00;100142.47;5046976;28;20201;-81
2022/10/19 09:51:04;;;;;;;9.13;3.30;;;;;;;14.32;100.00;100146.53;5047964;28;20197;-82
2022/10/19 09:53:35;;;;;;;8.67;3.30;;;;;;;14.42;100.00;100137.97;5070249;28;20216;-82
2022/10/19 09:56:09;;;;;;;6.63;3.53;;;;;;;14.57;100.00;100137.88;5096546;28;20256;-82
2022/10/19 09:58:48;;;;;;;7.00;2.97;;;;;;;14.81;100.00;100129.22;5093175;28;20207;-82
2022/10/19 10:01:31;;;;;;;10.97;3.27;;;;;;;14.86;100.00;100130.63;5091983;28;20192;-82
2022/10/19 10:04:10;;;;;;;6.13;3.50;;;;;;;14.77;100.00;100125.91;5095207;28;20199;-82
2022/10/19 10:06:40;;;;;;;8.10;3.03;;;;;;;15.13;100.00;100121.72;5091640;28;20196;-82
2022/10/19 10:09:17;;;;;;;7.27;2.70;;;;;;;15.71;100.00;100121.28;5032506;28;20202;-82
2022/10/19 10:11:47;;;;;;;4.93;2.70;;;;;;;15.50;100.00;100117.41;5027641;28;20213;-82
2022/10/19 10:14:21;;;;;;;5.57;2.73;;;;;;;16.00;100.00;100119.22;5028346;28;20320;-82
2022/10/19 10:16:55;;;;;;;5.83;3.00;;;;;;;16.36;100.00;100116.72;5028230;28;20193;-81
2022/10/19 10:19:28;;;;;;;6.87;3.00;;;;;;;16.11;100.00;100107.78;5025929;28;20232;-82
2022/10/19 10:21:58;;;;;;;8.17;2.90;;;;;;;15.74;100.00;100106.88;5035093;28;20202;-81
2022/10/19 10:24:31;;;;;;;6.40;2.83;;;;;;;15.77;100.00;100113.81;5029938;28;20205;-81
2022/10/19 10:27:01;;;;;;;8.87;2.80;;;;;;;16.10;100.00;100115.91;5025581;28;20700;-82
2022/10/19 10:29:32;;;;;;;3.80;2.30;;;;;;;16.25;100.00;100121.00;5031378;28;20708;-81
2022/10/19 10:32:05;;;;;;;6.60;2.30;;;;;;;16.70;100.00;100117.81;5024768;28;20196;-81
2022/10/19 10:34:37;;;;;;;6.33;2.70;;;;;;;16.72;100.00;100116.72;5076746;28;20211;-81
2022/10/19 10:37:21;;;;;;;8.77;2.50;;;;;;;17.29;100.00;100113.31;5091716;28;20385;-82
2022/10/19 10:39:54;;;;;;;6.47;2.30;;;;;;;17.22;100.00;100113.88;5088101;28;20249;-81
2022/10/19 10:42:35;;;;;;;8.80;2.43;;;;;;;17.62;100.00;100109.84;5090933;28;20199;-82
2022/10/19 10:45:16;;;;;;;5.63;2.30;;;;;;;16.96;100.00;100108.66;5011572;28;20198;-82
2022/10/19 10:47:47;;;;;;;6.30;2.10;;;;;;;16.93;100.00;100102.72;5007761;28;20194;-82
2022/10/19 10:50:23;;;;;;;6.80;2.47;;;;;;;17.09;100.00;100095.25;5004157;28;20195;-82
2022/10/19 10:52:59;;;;;;;6.47;2.13;;;;;;;17.21;100.00;100093.44;4988984;28;20194;-82
2022/10/19 10:55:32;;;;;;;8.10;2.47;;;;;;;17.20;100.00;100092.59;4986626;28;20277;-82
2022/10/19 10:58:12;;;;;;;6.67;2.60;;;;;;;17.27;100.00;100092.94;4987230;28;20199;-81
2022/10/19 11:00:43;;;;;;;6.43;2.50;;;;;;;17.64;100.00;100077.56;4987466;28;20275;-82
2022/10/19 11:03:17;;;;;;;6.90;2.47;;;;;;;17.41;100.00;100079.38;4989598;28;20195;-80
2022/10/19 11:05:54;;;;;;;4.00;2.30;;;;;;;18.11;100.00;100073.81;4990701;28;20195;-82
2022/10/19 11:08:27;;;;;;;5.30;2.43;;;;;;;18.13;100.00;100060.28;4994022;28;20191;-83
2022/10/19 11:11:02;;;;;;;7.47;2.50;;;;;;;18.13;100.00;100061.13;4987411;28;20206;-82
2022/10/19 11:13:35;;;;;;;6.63;2.70;;;;;;;17.94;100.00;100053.72;4993618;28;20227;-82
2022/10/19 11:16:12;;;;;;;6.07;1.97;;;;;;;18.26;100.00;100048.44;5013084;28;20668;-82
2022/10/19 11:18:47;;;;;;;7.37;2.27;;;;;;;18.59;100.00;100052.84;5086941;28;20199;-83
2022/10/19 11:21:22;;;;;;;6.77;2.20;;;;;;;18.79;100.00;100053.06;5092987;28;20261;-82
2022/10/19 11:24:01;;;;;;;6.63;2.00;;;;;;;18.74;100.00;100044.56;5087709;28;20194;-83
2022/10/19 11:27:07;;;;;;;6.97;2.23;;;;;;;19.23;100.00;100037.69;5091658;28;20187;-82
2022/10/19 11:30:00;;;;;;;5.50;2.20;;;;;;;19.29;100.00;100043.38;5086909;28;20286;-82
2022/10/19 11:32:39;;;;;;;8.53;2.00;;;;;;;19.56;100.00;100042.84;5029039;28;20216;-82